sensor_id;sensor_type;location;lat;lon;timestamp;temperature;humidity
16417;DHT22;8317;52.186;5.688;2023-12-04T00:00:35;1.40;99.90
16417;DHT22;8317;52.186;5.688;2023-12-04T00:03:02;1.40;99.90
16417;DHT22;8317;52.186;5.688;2023-12-04T00:05:29;1.40;99.90
16417;DHT22;8317;52.186;5.688;2023-12-04T00:07:56;1.40;99.90
16417;DHT22;8317;52.186;5.688;2023-12-04T00:10:22;1.40;99.90
16417;DHT22;8317;52.186;5.688;2023-12-04T00:12:49;1.40;99.90
16417;DHT22;8317;52.186;5.688;2023-12-04T00:15:19;1.50;99.90
16417;DHT22;8317;52.186;5.688;2023-12-04T00:17:46;1.50;99.90
16417;DHT22;8317;52.186;5.688;2023-12-04T00:20:13;1.50;99.90
16417;DHT22;8317;52.186;5.688;2023-12-04T00:22:40;1.40;99.90
16417;DHT22;8317;52.186;5.688;2023-12-04T00:25:07;1.40;99.90
16417;DHT22;8317;52.186;5.688;2023-12-04T00:27:34;1.40;99.90
16417;DHT22;8317;52.186;5.688;2023-12-04T00:30:01;1.40;99.90
16417;DHT22;8317;52.186;5.688;2023-12-04T00:32:31;1.40;99.90
16417;DHT22;8317;52.186;5.688;2023-12-04T00:34:58;1.40;99.90
16417;DHT22;8317;52.186;5.688;2023-12-04T00:37:26;1.40;99.90
16417;DHT22;8317;52.186;5.688;2023-12-04T00:39:53;1.40;99.90
16417;DHT22;8317;52.186;5.688;2023-12-04T00:42:20;1.40;99.90
16417;DHT22;8317;52.186;5.688;2023-12-04T00:44:47;1.40;99.90
16417;DHT22;8317;52.186;5.688;2023-12-04T00:47:14;1.40;99.90
16417;DHT22;8317;52.186;5.688;2023-12-04T00:49:42;1.40;99.90
16417;DHT22;8317;52.186;5.688;2023-12-04T00:52:09;1.40;99.90
16417;DHT22;8317;52.186;5.688;2023-12-04T00:54:39;1.40;99.90
16417;DHT22;8317;52.186;5.688;2023-12-04T00:57:06;1.40;99.90
16417;DHT22;8317;52.186;5.688;2023-12-04T00:59:32;1.40;99.90
16417;DHT22;8317;52.186;5.688;2023-12-04T01:01:59;1.40;99.90
16417;DHT22;8317;52.186;5.688;2023-12-04T01:04:26;1.40;99.90
16417;DHT22;8317;52.186;5.688;2023-12-04T01:06:54;1.40;99.90
16417;DHT22;8317;52.186;5.688;2023-12-04T01:09:21;1.40;99.90
16417;DHT22;8317;52.186;5.688;2023-12-04T01:11:50;1.40;99.90
16417;DHT22;8317;52.186;5.688;2023-12-04T01:14:17;1.40;99.90
16417;DHT22;8317;52.186;5.688;2023-12-04T01:16:43;1.40;99.90
16417;DHT22;8317;52.186;5.688;2023-12-04T01:19:10;1.40;99.90
16417;DHT22;8317;52.186;5.688;2023-12-04T01:21:37;1.30;99.90
16417;DHT22;8317;52.186;5.688;2023-12-04T01:24:06;1.30;99.90
16417;DHT22;8317;52.186;5.688;2023-12-04T01:26:32;1.30;99.90
16417;DHT22;8317;52.186;5.688;2023-12-04T01:28:59;1.30;99.90
16417;DHT22;8317;52.186;5.688;2023-12-04T01:31:26;1.30;99.90
16417;DHT22;8317;52.186;5.688;2023-12-04T01:33:53;1.30;99.90
16417;DHT22;8317;52.186;5.688;2023-12-04T01:36:20;1.40;99.90
16417;DHT22;8317;52.186;5.688;2023-12-04T01:38:47;1.30;99.90
16417;DHT22;8317;52.186;5.688;2023-12-04T01:41:15;1.40;99.90
16417;DHT22;8317;52.186;5.688;2023-12-04T01:43:42;1.30;99.90
16417;DHT22;8317;52.186;5.688;2023-12-04T01:46:09;1.40;99.90
16417;DHT22;8317;52.186;5.688;2023-12-04T01:48:36;1.40;99.90
16417;DHT22;8317;52.186;5.688;2023-12-04T01:51:06;1.40;99.90
16417;DHT22;8317;52.186;5.688;2023-12-04T01:53:35;1.40;99.90
16417;DHT22;8317;52.186;5.688;2023-12-04T01:56:03;1.40;99.90
16417;DHT22;8317;52.186;5.688;2023-12-04T01:58:32;1.40;99.90
16417;DHT22;8317;52.186;5.688;2023-12-04T02:00:59;1.40;99.90
16417;DHT22;8317;52.186;5.688;2023-12-04T02:03:26;1.40;99.90
16417;DHT22;8317;52.186;5.688;2023-12-04T02:05:53;1.40;99.90
16417;DHT22;8317;52.186;5.688;2023-12-04T02:08:21;1.40;99.90
16417;DHT22;8317;52.186;5.688;2023-12-04T02:10:48;1.40;99.90
16417;DHT22;8317;52.186;5.688;2023-12-04T02:13:15;1.40;99.90
16417;DHT22;8317;52.186;5.688;2023-12-04T02:15:44;1.30;99.90
16417;DHT22;8317;52.186;5.688;2023-12-04T02:18:12;1.40;99.90
16417;DHT22;8317;52.186;5.688;2023-12-04T02:20:39;1.40;99.90
16417;DHT22;8317;52.186;5.688;2023-12-04T02:23:06;1.40;99.90
16417;DHT22;8317;52.186;5.688;2023-12-04T02:25:34;1.40;99.90
16417;DHT22;8317;52.186;5.688;2023-12-04T02:28:04;1.50;99.90
16417;DHT22;8317;52.186;5.688;2023-12-04T02:30:34;1.40;99.90
16417;DHT22;8317;52.186;5.688;2023-12-04T02:33:04;1.40;99.90
16417;DHT22;8317;52.186;5.688;2023-12-04T02:35:33;1.50;99.90
16417;DHT22;8317;52.186;5.688;2023-12-04T02:38:01;1.50;99.90
16417;DHT22;8317;52.186;5.688;2023-12-04T02:40:29;1.40;99.90
16417;DHT22;8317;52.186;5.688;2023-12-04T02:42:57;1.50;99.90
16417;DHT22;8317;52.186;5.688;2023-12-04T02:45:24;1.50;99.90
16417;DHT22;8317;52.186;5.688;2023-12-04T02:47:51;1.40;99.90
16417;DHT22;8317;52.186;5.688;2023-12-04T02:50:18;1.40;99.90
16417;DHT22;8317;52.186;5.688;2023-12-04T02:52:45;1.40;99.90
16417;DHT22;8317;52.186;5.688;2023-12-04T02:55:12;1.40;99.90
16417;DHT22;8317;52.186;5.688;2023-12-04T02:57:39;1.40;99.90
16417;DHT22;8317;52.186;5.688;2023-12-04T03:00:08;1.40;99.90
16417;DHT22;8317;52.186;5.688;2023-12-04T03:02:36;1.40;99.90
16417;DHT22;8317;52.186;5.688;2023-12-04T03:05:03;1.40;99.90
16417;DHT22;8317;52.186;5.688;2023-12-04T03:07:30;1.40;99.90
16417;DHT22;8317;52.186;5.688;2023-12-04T03:09:57;1.40;99.90
16417;DHT22;8317;52.186;5.688;2023-12-04T03:12:24;1.50;99.90
16417;DHT22;8317;52.186;5.688;2023-12-04T03:14:51;1.40;99.90
16417;DHT22;8317;52.186;5.688;2023-12-04T03:17:19;1.40;99.90
16417;DHT22;8317;52.186;5.688;2023-12-04T03:19:46;1.40;99.90
16417;DHT22;8317;52.186;5.688;2023-12-04T03:22:13;1.40;99.90
16417;DHT22;8317;52.186;5.688;2023-12-04T03:24:39;1.40;99.90
16417;DHT22;8317;52.186;5.688;2023-12-04T03:27:06;1.40;99.90
16417;DHT22;8317;52.186;5.688;2023-12-04T03:29:33;1.50;99.90
16417;DHT22;8317;52.186;5.688;2023-12-04T03:32:00;1.40;99.90
16417;DHT22;8317;52.186;5.688;2023-12-04T03:34:28;1.50;99.90
16417;DHT22;8317;52.186;5.688;2023-12-04T03:36:55;1.50;99.90
16417;DHT22;8317;52.186;5.688;2023-12-04T03:39:22;1.40;99.90
16417;DHT22;8317;52.186;5.688;2023-12-04T03:41:49;1.40;99.90
16417;DHT22;8317;52.186;5.688;2023-12-04T03:44:15;1.40;99.90
16417;DHT22;8317;52.186;5.688;2023-12-04T03:46:42;1.40;99.90
16417;DHT22;8317;52.186;5.688;2023-12-04T03:49:09;1.40;99.90
16417;DHT22;8317;52.186;5.688;2023-12-04T03:51:37;1.40;99.90
16417;DHT22;8317;52.186;5.688;2023-12-04T03:54:04;1.40;99.90
16417;DHT22;8317;52.186;5.688;2023-12-04T03:56:31;1.40;99.90
16417;DHT22;8317;52.186;5.688;2023-12-04T03:58:58;1.40;99.90
16417;DHT22;8317;52.186;5.688;2023-12-04T04:01:25;1.40;99.90
16417;DHT22;8317;52.186;5.688;2023-12-04T04:03:51;1.40;99.90
16417;DHT22;8317;52.186;5.688;2023-12-04T04:06:18;1.40;99.90
16417;DHT22;8317;52.186;5.688;2023-12-04T04:08:47;1.30;99.90
16417;DHT22;8317;52.186;5.688;2023-12-04T04:11:13;1.30;99.90
16417;DHT22;8317;52.186;5.688;2023-12-04T04:13:40;1.30;99.90
16417;DHT22;8317;52.186;5.688;2023-12-04T04:16:12;1.30;99.90
16417;DHT22;8317;52.186;5.688;2023-12-04T04:18:39;1.30;99.90
16417;DHT22;8317;52.186;5.688;2023-12-04T04:21:06;1.30;99.90
16417;DHT22;8317;52.186;5.688;2023-12-04T04:23:33;1.30;99.90
16417;DHT22;8317;52.186;5.688;2023-12-04T04:26:01;1.30;99.90
16417;DHT22;8317;52.186;5.688;2023-12-04T04:28:28;1.30;99.90
16417;DHT22;8317;52.186;5.688;2023-12-04T04:30:55;1.30;99.90
16417;DHT22;8317;52.186;5.688;2023-12-04T04:33:22;1.30;99.90
16417;DHT22;8317;52.186;5.688;2023-12-04T04:35:48;1.30;99.90
16417;DHT22;8317;52.186;5.688;2023-12-04T04:38:15;1.20;99.90
16417;DHT22;8317;52.186;5.688;2023-12-04T04:40:42;1.20;99.90
16417;DHT22;8317;52.186;5.688;2023-12-04T04:43:11;1.20;99.90
16417;DHT22;8317;52.186;5.688;2023-12-04T04:45:38;1.20;99.90
16417;DHT22;8317;52.186;5.688;2023-12-04T04:48:05;1.30;99.90
16417;DHT22;8317;52.186;5.688;2023-12-04T04:50:32;1.30;99.90
16417;DHT22;8317;52.186;5.688;2023-12-04T04:52:59;1.30;99.90
16417;DHT22;8317;52.186;5.688;2023-12-04T04:55:26;1.30;99.90
16417;DHT22;8317;52.186;5.688;2023-12-04T04:57:53;1.30;99.90
16417;DHT22;8317;52.186;5.688;2023-12-04T05:00:21;1.30;99.90
16417;DHT22;8317;52.186;5.688;2023-12-04T05:02:48;1.30;99.90
16417;DHT22;8317;52.186;5.688;2023-12-04T05:05:15;1.30;99.90
16417;DHT22;8317;52.186;5.688;2023-12-04T05:07:42;1.20;99.90
16417;DHT22;8317;52.186;5.688;2023-12-04T05:10:09;1.20;99.90
16417;DHT22;8317;52.186;5.688;2023-12-04T05:12:36;1.20;99.90
16417;DHT22;8317;52.186;5.688;2023-12-04T05:15:03;1.20;99.90
16417;DHT22;8317;52.186;5.688;2023-12-04T05:17:32;1.20;99.90
16417;DHT22;8317;52.186;5.688;2023-12-04T05:19:59;1.20;99.90
16417;DHT22;8317;52.186;5.688;2023-12-04T05:22:25;1.20;99.90
16417;DHT22;8317;52.186;5.688;2023-12-04T05:24:52;1.30;99.90
16417;DHT22;8317;52.186;5.688;2023-12-04T05:27:19;1.30;99.90
16417;DHT22;8317;52.186;5.688;2023-12-04T05:29:46;1.20;99.90
16417;DHT22;8317;52.186;5.688;2023-12-04T05:32:13;1.20;99.90
16417;DHT22;8317;52.186;5.688;2023-12-04T05:34:41;1.20;99.90
16417;DHT22;8317;52.186;5.688;2023-12-04T05:37:08;1.20;99.90
16417;DHT22;8317;52.186;5.688;2023-12-04T05:39:35;1.20;99.90
16417;DHT22;8317;52.186;5.688;2023-12-04T05:42:02;1.20;99.90
16417;DHT22;8317;52.186;5.688;2023-12-04T05:44:30;1.20;99.90
16417;DHT22;8317;52.186;5.688;2023-12-04T05:46:57;1.30;99.90
16417;DHT22;8317;52.186;5.688;2023-12-04T05:49:24;1.20;99.90
16417;DHT22;8317;52.186;5.688;2023-12-04T05:51:52;1.20;99.90
16417;DHT22;8317;52.186;5.688;2023-12-04T05:54:19;1.20;99.90
16417;DHT22;8317;52.186;5.688;2023-12-04T05:56:46;1.30;99.90
16417;DHT22;8317;52.186;5.688;2023-12-04T05:59:13;1.30;99.90
16417;DHT22;8317;52.186;5.688;2023-12-04T06:01:40;1.20;99.90
16417;DHT22;8317;52.186;5.688;2023-12-04T06:04:07;1.20;99.90
16417;DHT22;8317;52.186;5.688;2023-12-04T06:06:34;1.20;99.90
16417;DHT22;8317;52.186;5.688;2023-12-04T06:09:02;1.20;99.90
16417;DHT22;8317;52.186;5.688;2023-12-04T06:11:29;1.20;99.90
16417;DHT22;8317;52.186;5.688;2023-12-04T06:13:55;1.20;99.90
16417;DHT22;8317;52.186;5.688;2023-12-04T06:16:22;1.20;99.90
16417;DHT22;8317;52.186;5.688;2023-12-04T06:18:50;1.20;99.90
16417;DHT22;8317;52.186;5.688;2023-12-04T06:21:18;1.20;99.90
16417;DHT22;8317;52.186;5.688;2023-12-04T06:23:45;1.20;99.90
16417;DHT22;8317;52.186;5.688;2023-12-04T06:26:14;1.20;99.90
16417;DHT22;8317;52.186;5.688;2023-12-04T06:28:43;1.20;99.90
16417;DHT22;8317;52.186;5.688;2023-12-04T06:31:11;1.20;99.90
16417;DHT22;8317;52.186;5.688;2023-12-04T06:33:39;1.20;99.90
16417;DHT22;8317;52.186;5.688;2023-12-04T06:36:07;1.30;99.90
16417;DHT22;8317;52.186;5.688;2023-12-04T06:38:39;1.20;99.90
16417;DHT22;8317;52.186;5.688;2023-12-04T06:41:07;1.20;99.90
16417;DHT22;8317;52.186;5.688;2023-12-04T06:43:37;1.30;99.90
16417;DHT22;8317;52.186;5.688;2023-12-04T06:46:05;1.30;99.90
16417;DHT22;8317;52.186;5.688;2023-12-04T06:48:32;1.30;99.90
16417;DHT22;8317;52.186;5.688;2023-12-04T06:50:59;1.30;99.90
16417;DHT22;8317;52.186;5.688;2023-12-04T06:53:26;1.30;99.90
16417;DHT22;8317;52.186;5.688;2023-12-04T06:55:53;1.30;99.90
16417;DHT22;8317;52.186;5.688;2023-12-04T06:58:20;1.30;99.90
16417;DHT22;8317;52.186;5.688;2023-12-04T07:00:48;1.30;99.90
16417;DHT22;8317;52.186;5.688;2023-12-04T07:03:15;1.40;99.90
16417;DHT22;8317;52.186;5.688;2023-12-04T07:05:42;1.30;99.90
16417;DHT22;8317;52.186;5.688;2023-12-04T07:08:09;1.30;99.90
16417;DHT22;8317;52.186;5.688;2023-12-04T07:10:36;1.30;99.90
16417;DHT22;8317;52.186;5.688;2023-12-04T07:13:03;1.30;99.90
16417;DHT22;8317;52.186;5.688;2023-12-04T07:15:30;1.30;99.90
16417;DHT22;8317;52.186;5.688;2023-12-04T07:17:58;1.30;99.90
16417;DHT22;8317;52.186;5.688;2023-12-04T07:20:25;1.30;99.90
16417;DHT22;8317;52.186;5.688;2023-12-04T07:22:52;1.30;99.90
16417;DHT22;8317;52.186;5.688;2023-12-04T07:25:19;1.30;99.90
16417;DHT22;8317;52.186;5.688;2023-12-04T07:27:46;1.30;99.90
16417;DHT22;8317;52.186;5.688;2023-12-04T07:30:13;1.30;99.90
16417;DHT22;8317;52.186;5.688;2023-12-04T07:32:40;1.40;99.90
16417;DHT22;8317;52.186;5.688;2023-12-04T07:35:09;1.40;99.90
16417;DHT22;8317;52.186;5.688;2023-12-04T07:37:35;1.40;99.90
16417;DHT22;8317;52.186;5.688;2023-12-04T07:40:03;1.40;99.90
16417;DHT22;8317;52.186;5.688;2023-12-04T07:42:33;1.40;99.90
16417;DHT22;8317;52.186;5.688;2023-12-04T07:45:00;1.40;99.90
16417;DHT22;8317;52.186;5.688;2023-12-04T07:47:27;1.40;99.90
16417;DHT22;8317;52.186;5.688;2023-12-04T07:49:54;1.40;99.90
16417;DHT22;8317;52.186;5.688;2023-12-04T07:52:22;1.40;99.90
16417;DHT22;8317;52.186;5.688;2023-12-04T07:54:49;1.40;99.90
16417;DHT22;8317;52.186;5.688;2023-12-04T07:57:16;1.40;99.90
16417;DHT22;8317;52.186;5.688;2023-12-04T07:59:43;1.40;99.90
16417;DHT22;8317;52.186;5.688;2023-12-04T08:02:10;1.40;99.90
16417;DHT22;8317;52.186;5.688;2023-12-04T08:04:37;1.40;99.90
16417;DHT22;8317;52.186;5.688;2023-12-04T08:07:04;1.40;99.90
16417;DHT22;8317;52.186;5.688;2023-12-04T08:09:32;1.40;99.90
16417;DHT22;8317;52.186;5.688;2023-12-04T08:11:59;1.40;99.90
16417;DHT22;8317;52.186;5.688;2023-12-04T08:14:26;1.40;99.90
16417;DHT22;8317;52.186;5.688;2023-12-04T08:16:53;1.50;99.90
16417;DHT22;8317;52.186;5.688;2023-12-04T08:19:20;1.50;99.90
16417;DHT22;8317;52.186;5.688;2023-12-04T08:21:48;1.50;99.90
16417;DHT22;8317;52.186;5.688;2023-12-04T08:24:15;1.50;99.90
16417;DHT22;8317;52.186;5.688;2023-12-04T08:26:45;1.60;99.90
16417;DHT22;8317;52.186;5.688;2023-12-04T08:29:12;1.60;99.90
16417;DHT22;8317;52.186;5.688;2023-12-04T08:31:39;1.60;99.90
16417;DHT22;8317;52.186;5.688;2023-12-04T08:34:06;1.60;99.90
16417;DHT22;8317;52.186;5.688;2023-12-04T08:36:33;1.60;99.90
16417;DHT22;8317;52.186;5.688;2023-12-04T08:38:59;1.60;99.90
16417;DHT22;8317;52.186;5.688;2023-12-04T08:41:26;1.60;99.90
16417;DHT22;8317;52.186;5.688;2023-12-04T08:43:55;1.60;99.90
16417;DHT22;8317;52.186;5.688;2023-12-04T08:46:22;1.70;99.90
16417;DHT22;8317;52.186;5.688;2023-12-04T08:48:49;1.70;99.90
16417;DHT22;8317;52.186;5.688;2023-12-04T08:51:16;1.70;99.90
16417;DHT22;8317;52.186;5.688;2023-12-04T08:53:43;1.80;99.90
16417;DHT22;8317;52.186;5.688;2023-12-04T08:56:10;1.80;99.90
16417;DHT22;8317;52.186;5.688;2023-12-04T08:58:38;1.80;99.90
16417;DHT22;8317;52.186;5.688;2023-12-04T09:01:07;1.90;99.90
16417;DHT22;8317;52.186;5.688;2023-12-04T09:03:33;1.90;99.90
16417;DHT22;8317;52.186;5.688;2023-12-04T09:06:00;1.90;99.90
16417;DHT22;8317;52.186;5.688;2023-12-04T09:08:27;1.90;99.90
16417;DHT22;8317;52.186;5.688;2023-12-04T09:10:54;2.00;99.90
16417;DHT22;8317;52.186;5.688;2023-12-04T09:13:22;2.00;99.90
16417;DHT22;8317;52.186;5.688;2023-12-04T09:15:49;2.10;99.90
16417;DHT22;8317;52.186;5.688;2023-12-04T09:18:18;2.10;99.90
16417;DHT22;8317;52.186;5.688;2023-12-04T09:20:45;2.10;99.90
16417;DHT22;8317;52.186;5.688;2023-12-04T09:23:12;2.10;99.90
16417;DHT22;8317;52.186;5.688;2023-12-04T09:25:39;2.10;99.90
16417;DHT22;8317;52.186;5.688;2023-12-04T09:28:06;2.10;99.90
16417;DHT22;8317;52.186;5.688;2023-12-04T09:30:33;2.20;99.90
16417;DHT22;8317;52.186;5.688;2023-12-04T09:33:02;2.20;99.90
16417;DHT22;8317;52.186;5.688;2023-12-04T09:35:30;2.20;99.90
16417;DHT22;8317;52.186;5.688;2023-12-04T09:37:57;2.20;99.90
16417;DHT22;8317;52.186;5.688;2023-12-04T09:40:25;2.30;99.90
16417;DHT22;8317;52.186;5.688;2023-12-04T09:42:52;2.30;99.90
16417;DHT22;8317;52.186;5.688;2023-12-04T09:45:20;2.40;99.90
16417;DHT22;8317;52.186;5.688;2023-12-04T09:47:48;2.40;99.90
16417;DHT22;8317;52.186;5.688;2023-12-04T09:50:16;2.40;99.90
16417;DHT22;8317;52.186;5.688;2023-12-04T09:52:48;2.40;99.90
16417;DHT22;8317;52.186;5.688;2023-12-04T09:55:15;2.40;99.90
16417;DHT22;8317;52.186;5.688;2023-12-04T09:57:43;2.40;99.90
16417;DHT22;8317;52.186;5.688;2023-12-04T10:00:12;2.50;99.90
16417;DHT22;8317;52.186;5.688;2023-12-04T10:02:40;2.50;99.90
16417;DHT22;8317;52.186;5.688;2023-12-04T10:05:07;2.50;99.90
16417;DHT22;8317;52.186;5.688;2023-12-04T10:07:34;2.60;99.90
16417;DHT22;8317;52.186;5.688;2023-12-04T10:10:03;2.60;99.90
16417;DHT22;8317;52.186;5.688;2023-12-04T10:12:31;2.60;99.90
16417;DHT22;8317;52.186;5.688;2023-12-04T10:15:06;2.60;99.90
16417;DHT22;8317;52.186;5.688;2023-12-04T10:17:34;2.70;99.90
16417;DHT22;8317;52.186;5.688;2023-12-04T10:20:07;2.70;99.90
16417;DHT22;8317;52.186;5.688;2023-12-04T10:22:38;2.60;99.90
16417;DHT22;8317;52.186;5.688;2023-12-04T10:25:16;2.70;99.90
16417;DHT22;8317;52.186;5.688;2023-12-04T10:27:43;2.60;99.90
16417;DHT22;8317;52.186;5.688;2023-12-04T10:30:22;2.60;99.90
16417;DHT22;8317;52.186;5.688;2023-12-04T10:32:53;2.60;99.90
16417;DHT22;8317;52.186;5.688;2023-12-04T10:35:20;2.50;99.90
16417;DHT22;8317;52.186;5.688;2023-12-04T10:37:48;2.50;99.90
16417;DHT22;8317;52.186;5.688;2023-12-04T10:40:24;2.50;99.90
16417;DHT22;8317;52.186;5.688;2023-12-04T10:42:53;2.60;99.90
16417;DHT22;8317;52.186;5.688;2023-12-04T10:45:36;2.60;99.90
16417;DHT22;8317;52.186;5.688;2023-12-04T10:48:03;2.60;99.90
16417;DHT22;8317;52.186;5.688;2023-12-04T10:50:31;2.60;99.90
16417;DHT22;8317;52.186;5.688;2023-12-04T10:53:01;2.70;99.90
16417;DHT22;8317;52.186;5.688;2023-12-04T10:55:31;2.70;99.90
16417;DHT22;8317;52.186;5.688;2023-12-04T10:57:59;2.80;99.90
16417;DHT22;8317;52.186;5.688;2023-12-04T11:00:28;2.80;99.90
16417;DHT22;8317;52.186;5.688;2023-12-04T11:03:00;2.70;99.90
16417;DHT22;8317;52.186;5.688;2023-12-04T11:05:31;2.80;99.90
16417;DHT22;8317;52.186;5.688;2023-12-04T11:08:02;2.80;99.90
16417;DHT22;8317;52.186;5.688;2023-12-04T11:10:33;2.80;99.90
16417;DHT22;8317;52.186;5.688;2023-12-04T11:13:07;2.80;99.90
16417;DHT22;8317;52.186;5.688;2023-12-04T11:15:39;2.80;99.90
16417;DHT22;8317;52.186;5.688;2023-12-04T11:18:07;2.80;99.90
16417;DHT22;8317;52.186;5.688;2023-12-04T11:20:43;2.80;99.90
16417;DHT22;8317;52.186;5.688;2023-12-04T11:23:13;2.90;99.90
16417;DHT22;8317;52.186;5.688;2023-12-04T11:25:43;2.90;99.90
16417;DHT22;8317;52.186;5.688;2023-12-04T11:28:11;2.90;99.90
16417;DHT22;8317;52.186;5.688;2023-12-04T11:30:39;2.90;99.90
16417;DHT22;8317;52.186;5.688;2023-12-04T11:33:06;2.90;99.90
16417;DHT22;8317;52.186;5.688;2023-12-04T11:35:33;2.90;99.90
16417;DHT22;8317;52.186;5.688;2023-12-04T11:38:00;2.90;99.90
16417;DHT22;8317;52.186;5.688;2023-12-04T11:40:27;2.90;99.90
16417;DHT22;8317;52.186;5.688;2023-12-04T11:42:56;2.90;99.90
16417;DHT22;8317;52.186;5.688;2023-12-04T11:45:23;2.80;99.90
16417;DHT22;8317;52.186;5.688;2023-12-04T11:47:54;2.90;99.90
16417;DHT22;8317;52.186;5.688;2023-12-04T11:50:22;2.80;99.90
16417;DHT22;8317;52.186;5.688;2023-12-04T11:52:50;2.80;99.90
16417;DHT22;8317;52.186;5.688;2023-12-04T11:55:20;2.80;99.90
16417;DHT22;8317;52.186;5.688;2023-12-04T11:57:49;2.80;99.90
16417;DHT22;8317;52.186;5.688;2023-12-04T12:00:22;2.90;99.90
16417;DHT22;8317;52.186;5.688;2023-12-04T12:03:03;2.80;99.90
16417;DHT22;8317;52.186;5.688;2023-12-04T12:05:33;2.90;99.90
16417;DHT22;8317;52.186;5.688;2023-12-04T12:08:03;2.80;99.90
16417;DHT22;8317;52.186;5.688;2023-12-04T12:10:31;2.90;99.90
16417;DHT22;8317;52.186;5.688;2023-12-04T12:12:58;2.90;99.90
16417;DHT22;8317;52.186;5.688;2023-12-04T12:15:28;2.90;99.90
16417;DHT22;8317;52.186;5.688;2023-12-04T12:17:55;2.80;99.90
16417;DHT22;8317;52.186;5.688;2023-12-04T12:20:22;2.80;99.90
16417;DHT22;8317;52.186;5.688;2023-12-04T12:22:49;2.80;99.90
16417;DHT22;8317;52.186;5.688;2023-12-04T12:25:17;2.80;99.90
16417;DHT22;8317;52.186;5.688;2023-12-04T12:27:45;2.80;99.90
16417;DHT22;8317;52.186;5.688;2023-12-04T12:30:12;2.80;99.90
16417;DHT22;8317;52.186;5.688;2023-12-04T12:32:40;2.80;99.90
16417;DHT22;8317;52.186;5.688;2023-12-04T12:35:07;2.80;99.90
16417;DHT22;8317;52.186;5.688;2023-12-04T12:37:35;2.80;99.90
16417;DHT22;8317;52.186;5.688;2023-12-04T12:40:01;2.80;99.90
16417;DHT22;8317;52.186;5.688;2023-12-04T12:42:30;2.80;99.90
16417;DHT22;8317;52.186;5.688;2023-12-04T12:45:00;2.80;99.90
16417;DHT22;8317;52.186;5.688;2023-12-04T12:47:27;2.80;99.90
16417;DHT22;8317;52.186;5.688;2023-12-04T12:49:57;2.80;99.90
16417;DHT22;8317;52.186;5.688;2023-12-04T12:52:23;2.80;99.90
16417;DHT22;8317;52.186;5.688;2023-12-04T12:54:52;2.90;99.90
16417;DHT22;8317;52.186;5.688;2023-12-04T12:57:19;2.90;99.90
16417;DHT22;8317;52.186;5.688;2023-12-04T12:59:46;2.90;99.90
16417;DHT22;8317;52.186;5.688;2023-12-04T13:02:14;2.90;99.90
16417;DHT22;8317;52.186;5.688;2023-12-04T13:04:42;2.80;99.90
16417;DHT22;8317;52.186;5.688;2023-12-04T13:07:11;2.90;99.90
16417;DHT22;8317;52.186;5.688;2023-12-04T13:09:38;2.90;99.90
16417;DHT22;8317;52.186;5.688;2023-12-04T13:12:06;2.90;99.90
16417;DHT22;8317;52.186;5.688;2023-12-04T13:14:33;2.90;99.90
16417;DHT22;8317;52.186;5.688;2023-12-04T13:17:01;2.90;99.90
16417;DHT22;8317;52.186;5.688;2023-12-04T13:19:28;2.90;99.90
16417;DHT22;8317;52.186;5.688;2023-12-04T13:21:57;2.90;99.90
16417;DHT22;8317;52.186;5.688;2023-12-04T13:24:25;3.00;99.90
16417;DHT22;8317;52.186;5.688;2023-12-04T13:26:53;3.00;99.90
16417;DHT22;8317;52.186;5.688;2023-12-04T13:29:20;3.00;99.90
16417;DHT22;8317;52.186;5.688;2023-12-04T13:31:48;3.00;99.90
16417;DHT22;8317;52.186;5.688;2023-12-04T13:34:16;3.00;99.90
16417;DHT22;8317;52.186;5.688;2023-12-04T13:36:43;3.00;99.90
16417;DHT22;8317;52.186;5.688;2023-12-04T13:39:10;2.90;99.90
16417;DHT22;8317;52.186;5.688;2023-12-04T13:41:44;2.90;99.90
16417;DHT22;8317;52.186;5.688;2023-12-04T13:44:31;2.90;99.90
16417;DHT22;8317;52.186;5.688;2023-12-04T13:46:59;2.90;99.90
16417;DHT22;8317;52.186;5.688;2023-12-04T13:49:26;2.90;99.90
16417;DHT22;8317;52.186;5.688;2023-12-04T13:51:52;2.90;99.90
16417;DHT22;8317;52.186;5.688;2023-12-04T13:54:20;3.00;99.90
16417;DHT22;8317;52.186;5.688;2023-12-04T13:56:55;2.90;99.90
16417;DHT22;8317;52.186;5.688;2023-12-04T13:59:23;2.90;99.90
16417;DHT22;8317;52.186;5.688;2023-12-04T14:01:52;2.80;99.90
16417;DHT22;8317;52.186;5.688;2023-12-04T14:04:21;2.90;99.90
16417;DHT22;8317;52.186;5.688;2023-12-04T14:06:49;2.90;99.90
16417;DHT22;8317;52.186;5.688;2023-12-04T14:09:16;2.90;99.90
16417;DHT22;8317;52.186;5.688;2023-12-04T14:11:43;2.90;99.90
16417;DHT22;8317;52.186;5.688;2023-12-04T14:14:12;2.90;99.90
16417;DHT22;8317;52.186;5.688;2023-12-04T14:16:39;2.90;99.90
16417;DHT22;8317;52.186;5.688;2023-12-04T14:19:07;2.90;99.90
16417;DHT22;8317;52.186;5.688;2023-12-04T14:21:34;2.90;99.90
16417;DHT22;8317;52.186;5.688;2023-12-04T14:24:01;2.90;99.90
16417;DHT22;8317;52.186;5.688;2023-12-04T14:26:28;2.90;99.90
16417;DHT22;8317;52.186;5.688;2023-12-04T14:28:55;2.90;99.90
16417;DHT22;8317;52.186;5.688;2023-12-04T14:31:24;2.90;99.90
16417;DHT22;8317;52.186;5.688;2023-12-04T14:33:52;2.90;99.90
16417;DHT22;8317;52.186;5.688;2023-12-04T14:36:19;2.90;99.90
16417;DHT22;8317;52.186;5.688;2023-12-04T14:38:46;2.80;99.90
16417;DHT22;8317;52.186;5.688;2023-12-04T14:41:13;2.90;99.90
16417;DHT22;8317;52.186;5.688;2023-12-04T14:43:40;2.90;99.90
16417;DHT22;8317;52.186;5.688;2023-12-04T14:46:08;2.90;99.90
16417;DHT22;8317;52.186;5.688;2023-12-04T14:48:37;2.90;99.90
16417;DHT22;8317;52.186;5.688;2023-12-04T14:51:06;2.90;99.90
16417;DHT22;8317;52.186;5.688;2023-12-04T14:53:33;2.90;99.90
16417;DHT22;8317;52.186;5.688;2023-12-04T14:56:10;2.90;99.90
16417;DHT22;8317;52.186;5.688;2023-12-04T14:58:57;2.90;99.90
16417;DHT22;8317;52.186;5.688;2023-12-04T15:01:50;2.90;99.90
16417;DHT22;8317;52.186;5.688;2023-12-04T15:04:47;2.90;99.90
16417;DHT22;8317;52.186;5.688;2023-12-04T15:07:31;2.90;99.90
16417;DHT22;8317;52.186;5.688;2023-12-04T15:10:23;2.90;99.90
16417;DHT22;8317;52.186;5.688;2023-12-04T15:13:13;2.90;99.90
16417;DHT22;8317;52.186;5.688;2023-12-04T15:15:56;2.90;99.90
16417;DHT22;8317;52.186;5.688;2023-12-04T15:18:43;2.90;99.90
16417;DHT22;8317;52.186;5.688;2023-12-04T15:21:33;2.90;99.90
16417;DHT22;8317;52.186;5.688;2023-12-04T15:23:59;2.90;99.90
16417;DHT22;8317;52.186;5.688;2023-12-04T15:26:26;2.90;99.90
16417;DHT22;8317;52.186;5.688;2023-12-04T15:28:51;2.80;99.90
16417;DHT22;8317;52.186;5.688;2023-12-04T15:31:18;2.90;99.90
16417;DHT22;8317;52.186;5.688;2023-12-04T15:33:44;2.90;99.90
16417;DHT22;8317;52.186;5.688;2023-12-04T15:36:11;2.90;99.90
16417;DHT22;8317;52.186;5.688;2023-12-04T15:38:38;2.90;99.90
16417;DHT22;8317;52.186;5.688;2023-12-04T15:41:06;2.90;99.90
16417;DHT22;8317;52.186;5.688;2023-12-04T15:43:32;3.00;99.90
16417;DHT22;8317;52.186;5.688;2023-12-04T15:45:58;3.00;99.90
16417;DHT22;8317;52.186;5.688;2023-12-04T15:48:24;3.00;99.90
16417;DHT22;8317;52.186;5.688;2023-12-04T15:50:51;2.90;99.90
16417;DHT22;8317;52.186;5.688;2023-12-04T15:53:17;3.00;99.90
16417;DHT22;8317;52.186;5.688;2023-12-04T15:55:46;2.90;99.90
16417;DHT22;8317;52.186;5.688;2023-12-04T15:58:12;2.90;99.90
16417;DHT22;8317;52.186;5.688;2023-12-04T16:00:39;2.90;99.90
16417;DHT22;8317;52.186;5.688;2023-12-04T16:03:06;2.80;99.90
16417;DHT22;8317;52.186;5.688;2023-12-04T16:05:32;2.80;99.90
16417;DHT22;8317;52.186;5.688;2023-12-04T16:07:59;2.80;99.90